createdAt,value
2022-08-22T00:02:31.574Z,1.50
2022-08-22T00:02:47.891Z,1.20
2022-08-22T00:02:49.563Z,1.17
2022-08-22T00:02:53.997Z,0.90
2022-08-22T00:03:07.954Z,1.10
2022-08-22T00:05:16.128Z,1.60
2022-08-22T00:08:14.518Z,1.92
2022-08-22T00:11:09.516Z,1.80
2022-08-22T00:13:49.517Z,1.30
2022-08-22T00:17:08.519Z,1.60
2022-08-22T00:20:13.507Z,1.10
2022-08-22T00:23:07.049Z,1.00
2022-08-22T00:25:50.525Z,1.00
2022-08-22T00:28:36.512Z,1.02
2022-08-22T00:31:30.512Z,1.35
2022-08-22T00:34:29.500Z,1.50
2022-08-22T00:37:32.532Z,1.80
2022-08-22T00:40:13.033Z,1.08
2022-08-22T00:43:17.523Z,1.52
2022-08-22T00:46:11.513Z,1.70
2022-08-22T00:49:03.534Z,1.55
2022-08-22T00:51:58.519Z,1.75
2022-08-22T00:54:40.535Z,1.35
2022-08-22T01:00:20.535Z,1.40
2022-08-22T01:03:02.708Z,1.60
2022-08-22T01:05:59.520Z,2.80
2022-08-22T01:09:07.565Z,1.88
2022-08-22T01:11:59.539Z,1.40
2022-08-22T01:14:45.551Z,1.40
2022-08-22T01:17:38.980Z,2.08
2022-08-22T01:20:47.542Z,1.48
2022-08-22T01:23:49.593Z,1.48
2022-08-22T01:26:38.533Z,2.03
2022-08-22T01:29:27.862Z,2.00
2022-08-22T01:32:27.548Z,1.73
2022-08-22T01:34:54.181Z,1.77
2022-08-22T01:38:10.709Z,1.90
2022-08-22T01:41:02.100Z,1.63
2022-08-22T01:44:07.561Z,1.90
2022-08-22T01:46:38.828Z,1.52
2022-08-22T01:49:19.574Z,1.50
2022-08-22T01:51:58.448Z,1.80
2022-08-22T01:54:37.579Z,1.50
2022-08-22T01:57:08.152Z,1.90
2022-08-22T01:59:54.612Z,1.50
2022-08-22T02:02:39.948Z,1.73
2022-08-22T02:05:18.598Z,1.50
2022-08-22T02:08:03.592Z,1.60
2022-08-22T02:10:56.688Z,1.45
2022-08-22T02:13:52.583Z,1.40
2022-08-22T02:16:44.595Z,1.33
2022-08-22T02:19:14.288Z,1.88
2022-08-22T02:22:24.573Z,1.45
2022-08-22T02:25:17.556Z,2.00
2022-08-22T02:28:03.999Z,1.10
2022-08-22T02:30:52.599Z,1.92
2022-08-22T02:33:41.591Z,1.50
2022-08-22T02:36:46.603Z,1.40
2022-08-22T02:39:27.700Z,1.30
2022-08-22T02:42:28.589Z,1.30
2022-08-22T02:45:24.986Z,1.50
2022-08-22T02:48:27.719Z,1.33
2022-08-22T02:51:19.583Z,1.20
2022-08-22T02:54:15.595Z,1.20
2022-08-22T02:56:53.075Z,1.50
2022-08-22T03:00:30.901Z,1.10
2022-08-22T03:03:28.595Z,1.00
2022-08-22T03:06:15.734Z,1.60
2022-08-22T03:09:16.002Z,1.38
2022-08-22T03:12:18.612Z,1.60
2022-08-22T03:15:08.606Z,1.48
2022-08-22T03:18:03.607Z,1.70
2022-08-22T03:20:47.951Z,2.10
2022-08-22T03:23:31.613Z,1.25
2022-08-22T03:26:24.617Z,1.55
2022-08-22T03:29:13.635Z,1.63
2022-08-22T03:32:12.621Z,1.67
2022-08-22T03:34:56.676Z,1.75
2022-08-22T03:37:50.644Z,1.60
2022-08-22T03:40:20.418Z,1.73
2022-08-22T03:43:27.604Z,1.73
2022-08-22T03:46:23.872Z,1.73
2022-08-22T03:49:40.654Z,1.80
2022-08-22T03:52:25.641Z,1.20
2022-08-22T03:55:17.615Z,1.83
2022-08-22T03:58:32.634Z,1.60
2022-08-22T04:01:25.649Z,1.40
2022-08-22T04:04:10.727Z,1.30
2022-08-22T04:07:06.893Z,1.38
2022-08-22T04:10:03.589Z,1.33
2022-08-22T04:13:06.649Z,1.15
2022-08-22T04:16:04.195Z,1.10
2022-08-22T04:19:07.925Z,1.40
2022-08-22T04:22:21.359Z,1.30
2022-08-22T04:25:12.284Z,1.30
2022-08-22T04:28:21.634Z,1.33
2022-08-22T04:31:11.674Z,1.65
2022-08-22T04:34:08.414Z,1.85
2022-08-22T04:37:11.673Z,1.80
2022-08-22T04:39:51.251Z,1.42
2022-08-22T04:42:34.658Z,2.10
2022-08-22T04:45:10.320Z,1.70
2022-08-22T04:47:53.905Z,1.88
2022-08-22T04:50:39.974Z,2.78
2022-08-22T04:53:46.391Z,2.30
2022-08-22T04:56:38.755Z,2.78
2022-08-22T05:01:55.070Z,2.30
2022-08-22T05:04:51.672Z,1.98
2022-08-22T05:07:36.248Z,1.63
2022-08-22T05:10:13.437Z,1.90
2022-08-22T05:12:51.697Z,2.58
2022-08-22T05:15:28.684Z,2.83
2022-08-22T05:18:06.670Z,2.60
2022-08-22T05:20:42.660Z,2.10
2022-08-22T05:23:18.013Z,2.80
2022-08-22T05:25:55.673Z,2.33
2022-08-22T05:28:43.698Z,5.00
2022-08-22T05:31:23.275Z,4.78
2022-08-22T05:34:03.229Z,1.90
2022-08-22T05:36:47.702Z,2.00
2022-08-22T05:39:19.331Z,2.50
2022-08-22T05:41:52.700Z,1.95
2022-08-22T05:44:32.833Z,1.83
2022-08-22T05:47:10.745Z,2.10
2022-08-22T05:50:02.709Z,2.40
2022-08-22T05:53:09.685Z,2.30
2022-08-22T05:56:21.739Z,1.92
2022-08-22T05:58:54.247Z,2.15
2022-08-22T06:01:30.759Z,1.50
2022-08-22T06:04:13.718Z,2.33
2022-08-22T06:06:57.709Z,1.63
2022-08-22T06:09:47.725Z,1.58
2022-08-22T06:12:34.741Z,1.30
2022-08-22T06:15:41.713Z,1.48
2022-08-22T06:18:13.472Z,1.50
2022-08-22T06:21:25.726Z,1.88
2022-08-22T06:23:59.923Z,1.60
2022-08-22T06:26:40.712Z,1.60
2022-08-22T06:29:15.706Z,1.63
2022-08-22T06:31:46.909Z,1.80
2022-08-22T06:34:23.730Z,1.70
2022-08-22T06:36:58.713Z,1.60
2022-08-22T06:39:34.254Z,2.22
2022-08-22T06:42:20.727Z,1.80
2022-08-22T06:44:56.706Z,2.35
2022-08-22T06:47:49.786Z,2.63
2022-08-22T06:50:30.877Z,2.63
2022-08-22T06:53:26.749Z,1.90
2022-08-22T06:56:03.396Z,1.58
2022-08-22T06:58:42.738Z,1.90
2022-08-22T07:01:22.855Z,2.08
2022-08-22T07:04:03.741Z,2.00
2022-08-22T07:06:34.483Z,2.92
2022-08-22T07:09:07.744Z,2.28
2022-08-22T07:11:46.715Z,1.90
2022-08-22T07:14:22.752Z,1.95
2022-08-22T07:17:01.955Z,1.80
2022-08-22T07:19:43.756Z,2.20
2022-08-22T07:22:32.351Z,2.92
2022-08-22T07:25:13.739Z,1.92
2022-08-22T07:27:59.814Z,2.13
2022-08-22T07:30:44.756Z,2.03
2022-08-22T07:33:29.759Z,2.35
2022-08-22T07:36:07.740Z,2.53
2022-08-22T07:38:50.768Z,2.17
2022-08-22T07:41:38.745Z,2.65
2022-08-22T07:44:15.356Z,2.33
2022-08-22T07:47:05.021Z,2.67
2022-08-22T07:49:49.713Z,2.63
2022-08-22T07:52:23.774Z,3.05
2022-08-22T07:55:14.120Z,3.75
2022-08-22T07:57:50.769Z,2.80
2022-08-22T08:00:26.760Z,2.83
2022-08-22T08:02:58.246Z,2.83
2022-08-22T08:05:34.875Z,2.97
2022-08-22T08:08:07.264Z,2.80
2022-08-22T08:10:42.827Z,2.15
2022-08-22T08:13:15.990Z,2.58
2022-08-22T08:15:52.778Z,2.20
2022-08-22T08:18:25.827Z,2.80
2022-08-22T08:21:03.787Z,2.38
2022-08-22T08:23:39.588Z,2.20
2022-08-22T08:26:23.788Z,2.40
2022-08-22T08:28:53.388Z,2.38
2022-08-22T08:31:35.797Z,3.22
2022-08-22T08:34:14.772Z,3.08
2022-08-22T08:36:57.792Z,2.38
2022-08-22T08:39:44.244Z,2.65
2022-08-22T08:42:29.686Z,2.90
2022-08-22T08:45:44.800Z,2.67
2022-08-22T08:48:17.551Z,3.10
2022-08-22T08:51:12.801Z,2.88
2022-08-22T08:54:04.150Z,3.63
2022-08-22T08:57:07.815Z,3.35
2022-08-22T08:59:43.159Z,2.50
2022-08-22T09:02:36.834Z,2.45
2022-08-22T09:05:12.554Z,2.25
2022-08-22T09:08:19.819Z,2.55
2022-08-22T09:11:28.487Z,2.35
2022-08-22T09:14:14.131Z,2.45
2022-08-22T09:17:06.898Z,2.65
2022-08-22T09:19:39.833Z,2.65
2022-08-22T09:22:24.770Z,2.78
2022-08-22T09:25:36.808Z,2.50
2022-08-22T09:28:21.360Z,2.45
2022-08-22T09:31:32.789Z,2.65
2022-08-22T09:34:37.921Z,2.30
2022-08-22T09:37:19.836Z,2.22
2022-08-22T09:40:23.365Z,2.42
2022-08-22T09:43:25.845Z,2.25
2022-08-22T09:45:56.699Z,2.80
2022-08-22T09:48:52.832Z,2.30
2022-08-22T09:51:46.967Z,2.60
2022-08-22T09:54:23.826Z,2.20
2022-08-22T09:57:22.662Z,2.25
2022-08-22T10:00:11.869Z,2.45
2022-08-22T10:02:53.659Z,2.17
2022-08-22T10:05:44.405Z,2.70
2022-08-22T10:08:14.622Z,2.20
2022-08-22T10:11:08.842Z,2.53
2022-08-22T10:14:13.443Z,2.10
2022-08-22T10:17:07.247Z,1.70
2022-08-22T10:19:47.862Z,1.85
2022-08-22T10:25:22.616Z,2.22
2022-08-22T10:28:21.882Z,2.13
2022-08-22T10:31:27.687Z,2.50
2022-08-22T10:34:05.943Z,2.20
2022-08-22T10:37:14.968Z,2.03
2022-08-22T10:39:55.902Z,1.80
2022-08-22T10:45:36.669Z,2.33
2022-08-22T10:48:08.008Z,2.25
2022-08-22T10:50:56.858Z,2.33
2022-08-22T10:53:57.860Z,1.85
2022-08-22T10:56:46.856Z,1.98
2022-08-22T10:59:19.384Z,2.10
2022-08-22T11:02:08.177Z,2.38
2022-08-22T11:05:09.115Z,2.13
2022-08-22T11:07:53.896Z,1.90
2022-08-22T11:10:42.153Z,2.13
2022-08-22T11:13:37.904Z,1.90
2022-08-22T11:16:46.881Z,2.00
2022-08-22T11:19:48.651Z,2.17
2022-08-22T11:22:27.906Z,2.20
2022-08-22T11:25:35.673Z,2.28
2022-08-22T11:28:12.883Z,2.05
2022-08-22T11:31:22.907Z,2.22
2022-08-22T11:34:05.903Z,2.17
2022-08-22T11:36:58.902Z,2.33
2022-08-22T11:39:49.927Z,2.40
2022-08-22T11:42:36.241Z,2.22
2022-08-22T11:45:25.896Z,2.10
2022-08-22T11:48:07.406Z,2.15
2022-08-22T11:50:50.888Z,2.35
2022-08-22T11:53:35.036Z,2.35
2022-08-22T11:56:33.895Z,2.20
2022-08-22T11:59:13.908Z,2.30
2022-08-22T12:02:08.744Z,1.85
2022-08-22T12:04:44.172Z,2.17
2022-08-22T12:07:43.046Z,1.88
2022-08-22T12:10:24.656Z,2.00
2022-08-22T12:13:35.206Z,2.10
2022-08-22T12:16:27.812Z,2.22
2022-08-22T12:19:07.926Z,1.95
2022-08-22T12:21:58.942Z,2.00
2022-08-22T12:24:31.537Z,2.15
2022-08-22T12:27:29.488Z,2.20
2022-08-22T12:30:14.000Z,2.75
2022-08-22T12:33:22.039Z,2.33
2022-08-22T12:36:04.862Z,2.00
2022-08-22T12:39:03.941Z,1.90
2022-08-22T12:41:49.924Z,1.92
2022-08-22T12:44:41.723Z,1.58
2022-08-22T12:47:36.990Z,2.03
2022-08-22T12:50:32.044Z,2.10
2022-08-22T12:53:26.938Z,1.80
2022-08-22T12:56:41.939Z,2.10
2022-08-22T12:59:33.760Z,1.80
2022-08-22T13:02:24.934Z,2.08
2022-08-22T13:05:04.968Z,2.05
2022-08-22T13:07:42.011Z,2.03
2022-08-22T13:10:27.938Z,2.10
2022-08-22T13:12:58.034Z,2.10
2022-08-22T13:16:11.594Z,2.10
2022-08-22T13:18:54.078Z,2.13
2022-08-22T13:21:36.160Z,2.30
2022-08-22T13:24:38.895Z,1.80
2022-08-22T13:27:20.963Z,2.15
2022-08-22T13:30:00.303Z,2.20
2022-08-22T13:32:44.998Z,2.17
2022-08-22T13:35:25.977Z,2.10
2022-08-22T13:38:07.960Z,1.70
2022-08-22T13:40:43.820Z,2.00
2022-08-22T13:43:23.968Z,2.30
2022-08-22T13:46:03.971Z,2.28
2022-08-22T13:49:00.731Z,2.00
2022-08-22T13:51:46.974Z,2.20
2022-08-22T13:54:22.967Z,2.28
2022-08-22T13:57:19.607Z,2.08
2022-08-22T14:00:05.068Z,2.10
2022-08-22T14:02:34.298Z,2.33
2022-08-22T14:05:13.004Z,2.08
2022-08-22T14:08:16.947Z,2.03
2022-08-22T14:10:57.887Z,2.25
2022-08-22T14:14:01.969Z,2.35
2022-08-22T14:16:34.862Z,2.00
2022-08-22T14:19:20.979Z,1.77
2022-08-22T14:22:03.316Z,2.03
2022-08-22T14:24:47.983Z,2.22
2022-08-22T14:27:33.970Z,1.92
2022-08-22T14:30:19.066Z,2.00
2022-08-22T14:33:00.983Z,1.95
2022-08-22T14:35:35.089Z,2.20
2022-08-22T14:38:30.412Z,1.80
2022-08-22T14:41:05.356Z,2.17
2022-08-22T14:43:40.371Z,1.83
2022-08-22T14:46:12.476Z,2.38
2022-08-22T14:49:10.621Z,2.00
2022-08-22T14:51:46.188Z,2.20
2022-08-22T14:54:29.091Z,2.15
2022-08-22T14:56:57.194Z,2.10
2022-08-22T14:59:54.004Z,1.95
2022-08-22T15:02:30.830Z,1.90
2022-08-22T15:05:18.013Z,2.22
2022-08-22T15:07:54.216Z,1.75
2022-08-22T15:10:41.858Z,2.45
2022-08-22T15:13:10.728Z,2.00
2022-08-22T15:16:03.515Z,2.00
2022-08-22T15:18:35.571Z,2.03
2022-08-22T15:21:09.958Z,2.03
2022-08-22T15:23:47.028Z,2.08
2022-08-22T15:26:37.032Z,2.17
2022-08-22T15:29:14.781Z,1.80
2022-08-22T15:31:50.016Z,2.17
2022-08-22T15:34:54.056Z,2.35
2022-08-22T15:37:28.021Z,1.83
2022-08-22T15:40:16.047Z,2.00
2022-08-22T15:42:47.197Z,2.03
2022-08-22T15:48:09.020Z,2.17
2022-08-22T15:51:11.057Z,2.10
2022-08-22T15:53:50.050Z,2.17
2022-08-22T15:56:26.704Z,2.03
2022-08-22T15:59:28.074Z,1.77
2022-08-22T16:02:27.187Z,2.33
2022-08-22T16:05:21.034Z,2.30
2022-08-22T16:08:06.052Z,2.08
2022-08-22T16:10:41.813Z,2.35
2022-08-22T16:13:42.079Z,2.20
2022-08-22T16:16:30.520Z,2.35
2022-08-22T16:19:04.304Z,2.00
2022-08-22T16:21:30.926Z,2.20
2022-08-22T16:24:04.040Z,1.80
2022-08-22T16:26:30.661Z,2.28
2022-08-22T16:29:03.415Z,2.00
2022-08-22T16:31:42.184Z,2.22
2022-08-22T16:34:18.167Z,1.92
2022-08-22T16:37:28.081Z,1.70
2022-08-22T16:40:08.082Z,2.00
2022-08-22T16:42:50.098Z,1.95
2022-08-22T16:45:39.180Z,2.22
2022-08-22T16:48:40.075Z,2.45
2022-08-22T16:51:31.056Z,1.95
2022-08-22T16:54:15.087Z,2.00
2022-08-22T16:57:02.555Z,1.92
2022-08-22T16:59:53.097Z,2.30
2022-08-22T17:02:44.526Z,2.00
2022-08-22T17:08:21.075Z,2.35
2022-08-22T17:10:52.715Z,2.00
2022-08-22T17:13:34.085Z,1.83
2022-08-22T17:19:06.100Z,2.33
2022-08-22T17:21:41.979Z,2.00
2022-08-22T17:24:52.108Z,1.90
2022-08-22T17:27:34.987Z,2.33
2022-08-22T17:30:28.093Z,2.10
2022-08-22T17:33:38.109Z,2.00
2022-08-22T17:36:26.970Z,1.90
2022-08-22T17:39:12.119Z,2.35
2022-08-22T17:42:02.956Z,2.70
2022-08-22T17:44:51.678Z,2.45
2022-08-22T17:47:34.124Z,2.30
2022-08-22T17:50:10.867Z,2.63
2022-08-22T17:52:58.112Z,2.92
2022-08-22T17:55:48.938Z,2.85
2022-08-22T18:01:35.608Z,2.58
2022-08-22T18:04:07.564Z,2.70
2022-08-22T18:06:43.216Z,2.78
2022-08-22T18:09:22.776Z,2.95
2022-08-22T18:12:06.411Z,3.00
2022-08-22T18:14:41.776Z,2.50
2022-08-22T18:17:25.604Z,2.92
2022-08-22T18:20:07.345Z,3.17
2022-08-22T18:22:51.960Z,3.47
2022-08-22T18:25:18.613Z,2.85
2022-08-22T18:28:00.017Z,2.80
2022-08-22T18:30:33.019Z,2.65
2022-08-22T18:33:29.396Z,2.58
2022-08-22T18:36:08.268Z,2.47
2022-08-22T18:41:47.133Z,2.20
2022-08-22T18:44:23.793Z,2.53
2022-08-22T18:47:10.588Z,2.63
2022-08-22T18:49:41.986Z,2.67
2022-08-22T18:54:36.007Z,2.33
2022-08-22T18:57:26.428Z,2.30
2022-08-22T19:00:16.663Z,2.50
2022-08-22T19:03:23.879Z,2.97
2022-08-22T19:06:00.353Z,2.33
2022-08-22T19:09:06.229Z,2.45
2022-08-22T19:11:45.730Z,3.05
2022-08-22T19:14:46.033Z,2.20
2022-08-22T19:17:46.216Z,2.50
2022-08-22T19:20:53.869Z,2.45
2022-08-22T19:23:32.522Z,2.45
2022-08-22T19:26:24.114Z,2.40
2022-08-22T19:28:53.879Z,2.10
2022-08-22T19:31:52.157Z,2.63
2022-08-22T19:34:34.010Z,2.50
2022-08-22T19:37:32.162Z,2.72
2022-08-22T19:40:08.866Z,2.75
2022-08-22T19:42:38.886Z,4.05
2022-08-22T19:45:18.932Z,3.95
2022-08-22T19:47:57.248Z,3.78
2022-08-22T19:50:35.280Z,4.32
2022-08-22T19:53:08.510Z,4.40
2022-08-22T19:55:38.329Z,4.05
2022-08-22T19:58:32.574Z,4.22
2022-08-22T20:01:20.832Z,3.97
2022-08-22T20:03:56.540Z,3.50
2022-08-22T20:06:45.475Z,3.63
2022-08-22T20:09:45.600Z,4.13
2022-08-22T20:12:33.689Z,3.85
2022-08-22T20:15:21.916Z,3.25
2022-08-22T20:20:55.159Z,3.95
2022-08-22T20:23:29.656Z,3.92
2022-08-22T20:25:57.366Z,3.50
2022-08-22T20:28:54.203Z,3.80
2022-08-22T20:31:27.123Z,3.63
2022-08-22T20:34:04.107Z,3.13
2022-08-22T20:36:32.515Z,3.17
2022-08-22T20:39:08.732Z,2.72
2022-08-22T20:41:40.333Z,2.42
2022-08-22T20:46:53.753Z,3.13
2022-08-22T20:49:32.287Z,3.58
2022-08-22T20:52:08.543Z,3.17
2022-08-22T20:54:38.313Z,2.90
2022-08-22T20:57:18.607Z,2.80
2022-08-22T21:00:11.630Z,2.50
2022-08-22T21:02:53.997Z,3.72
2022-08-22T21:05:24.241Z,3.72
2022-08-22T21:08:13.227Z,2.92
2022-08-22T21:10:59.929Z,3.28
2022-08-22T21:13:34.793Z,2.88
2022-08-22T21:16:12.736Z,3.03
2022-08-22T21:18:45.809Z,3.10
2022-08-22T21:21:20.866Z,2.92
2022-08-22T21:23:51.330Z,3.58
2022-08-22T21:26:37.973Z,4.10
2022-08-22T21:29:06.628Z,3.72
2022-08-22T21:32:18.924Z,3.63
2022-08-22T21:34:48.841Z,3.67
2022-08-22T21:37:22.404Z,3.45
2022-08-22T21:40:21.326Z,3.55
2022-08-22T21:43:27.352Z,3.58
2022-08-22T21:45:54.158Z,4.07
2022-08-22T21:48:59.081Z,3.80
2022-08-22T21:51:39.981Z,3.38
2022-08-22T21:54:19.528Z,3.87
2022-08-22T21:56:46.555Z,3.17
2022-08-22T21:59:59.155Z,3.05
2022-08-22T22:02:36.458Z,3.78
2022-08-22T22:05:10.329Z,3.22
2022-08-22T22:07:41.215Z,3.35
2022-08-22T22:10:10.275Z,4.10
2022-08-22T22:12:40.691Z,3.25
2022-08-22T22:15:08.286Z,3.63
2022-08-22T22:17:34.991Z,3.42
2022-08-22T22:20:01.887Z,3.55
2022-08-22T22:22:28.794Z,3.10
2022-08-22T22:24:55.478Z,2.92
2022-08-22T22:27:22.178Z,3.30
2022-08-22T22:29:48.870Z,2.85
2022-08-22T22:32:15.649Z,3.10
2022-08-22T22:34:42.479Z,3.03
2022-08-22T22:37:11.858Z,3.65
2022-08-22T22:39:38.856Z,4.38
2022-08-22T22:42:06.537Z,4.75
2022-08-22T22:44:33.262Z,4.20
2022-08-22T22:47:02.254Z,4.78
2022-08-22T22:49:30.078Z,4.72
2022-08-22T22:51:57.127Z,4.25
2022-08-22T22:54:27.284Z,3.60
2022-08-22T22:56:54.403Z,4.50
2022-08-22T22:59:24.613Z,3.90
2022-08-22T23:02:11.356Z,4.47
2022-08-22T23:04:40.640Z,4.05
2022-08-22T23:07:09.831Z,3.65
2022-08-22T23:09:38.536Z,4.40
2022-08-22T23:12:12.655Z,4.43
2022-08-22T23:14:39.752Z,4.45
2022-08-22T23:17:07.176Z,4.13
2022-08-22T23:19:34.183Z,3.15
2022-08-22T23:22:03.073Z,3.08
2022-08-22T23:24:31.138Z,2.63
2022-08-22T23:26:58.352Z,2.30
2022-08-22T23:29:25.579Z,2.17
2022-08-22T23:31:58.439Z,2.25
2022-08-22T23:34:34.423Z,1.92
2022-08-22T23:37:02.983Z,2.28
2022-08-22T23:39:34.563Z,2.10
2022-08-22T23:42:02.950Z,2.20
2022-08-22T23:44:32.145Z,2.08
2022-08-22T23:46:59.731Z,2.25
2022-08-22T23:49:27.451Z,2.33
2022-08-22T23:51:54.722Z,1.95
2022-08-22T23:54:22.507Z,2.38
2022-08-22T23:56:54.767Z,2.33
2022-08-22T23:59:31.011Z,2.13
